Time;durP1;ratioP1;P1;durP2;ratioP2;P2;SDS_P1;SDS_P2;PMS_P1;PMS_P2;Temp;Humidity;BMP_temperature;BMP_pressure;BME280_temperature;BME280_humidity;BME280_pressure;Samples;Min_cycle;Max_cycle;Signal;HPM_P1;HPM_P2
2022/01/10 00:00:46;;;;;;;20.38;9.80;;;;;;;2.99;100.00;100239.56;7396169;19;20419;-65
2022/01/10 00:03:15;;;;;;;17.75;9.15;;;;;;;2.97;100.00;100240.41;7396839;19;20018;-65
2022/01/10 00:05:43;;;;;;;24.92;9.57;;;;;;;2.94;100.00;100246.47;7394760;19;20378;-65
2022/01/10 00:08:14;;;;;;;23.40;9.32;;;;;;;2.90;100.00;100247.31;7396267;19;20027;-65
2022/01/10 00:10:46;;;;;;;17.58;9.52;;;;;;;2.86;100.00;100253.38;7395890;19;20503;-65
2022/01/10 00:13:14;;;;;;;23.52;9.90;;;;;;;2.82;100.00;100257.69;7396229;19;20027;-65
2022/01/10 00:15:44;;;;;;;19.23;9.20;;;;;;;2.77;100.00;100268.00;7395498;19;20039;-65
2022/01/10 00:18:13;;;;;;;21.42;8.82;;;;;;;2.74;100.00;100273.22;7396384;19;20028;-65
2022/01/10 00:20:41;;;;;;;20.75;8.75;;;;;;;2.70;100.00;100274.03;7395902;19;20022;-65
2022/01/10 00:23:10;;;;;;;18.15;8.73;;;;;;;2.66;100.00;100272.31;7394066;19;20098;-65
2022/01/10 00:25:38;;;;;;;22.00;9.23;;;;;;;2.65;100.00;100286.09;7395279;19;20387;-65
2022/01/10 00:28:09;;;;;;;21.10;8.93;;;;;;;2.61;100.00;100289.56;7395271;19;20448;-63
2022/01/10 00:30:37;;;;;;;23.23;9.63;;;;;;;2.54;100.00;100286.09;7395860;19;20031;-65
2022/01/10 00:33:05;;;;;;;16.27;9.18;;;;;;;2.57;100.00;100295.59;7395423;19;20023;-64
2022/01/10 00:35:33;;;;;;;20.77;9.27;;;;;;;2.55;100.00;100297.28;7393626;19;20022;-65
2022/01/10 00:38:02;;;;;;;19.23;9.43;;;;;;;2.54;100.00;100304.22;7395357;19;20019;-65
2022/01/10 00:40:30;;;;;;;22.33;10.75;;;;;;;2.53;100.00;100307.66;7395274;19;20031;-65
2022/01/10 00:42:58;;;;;;;17.58;9.45;;;;;;;2.52;100.00;100318.88;7395250;19;20018;-65
2022/01/10 00:45:30;;;;;;;19.67;9.20;;;;;;;2.51;100.00;100327.50;7394822;19;20014;-65
2022/01/10 00:48:01;;;;;;;22.60;9.88;;;;;;;2.52;100.00;100330.97;7395530;19;20083;-65
2022/01/10 00:50:31;;;;;;;23.08;9.82;;;;;;;2.50;100.00;100333.53;7394685;19;20483;-65
2022/01/10 00:53:00;;;;;;;18.70;9.43;;;;;;;2.48;100.00;100340.44;7395011;19;20019;-65
2022/01/10 00:55:29;;;;;;;21.55;8.63;;;;;;;2.48;100.00;100339.56;7392692;19;20018;-65
2022/01/10 00:57:57;;;;;;;18.45;9.23;;;;;;;2.46;100.00;100351.66;7394894;19;20034;-65
2022/01/10 01:00:25;;;;;;;21.17;9.95;;;;;;;2.43;100.00;100353.34;7394422;19;20452;-65
2022/01/10 01:02:58;;;;;;;23.02;9.13;;;;;;;2.41;100.00;100360.25;7394712;19;20053;-65
2022/01/10 01:05:27;;;;;;;18.88;8.98;;;;;;;2.37;100.00;100357.63;7393684;19;20011;-65
2022/01/10 01:07:58;;;;;;;18.02;9.43;;;;;;;2.39;100.00;100367.16;7394581;19;20070;-65
2022/01/10 01:13:19;;;;;;;21.83;8.77;;;;;;;2.38;100.00;100375.78;7394582;19;20019;-64
2022/01/10 01:15:58;;;;;;;19.98;8.95;;;;;;;2.39;100.00;100381.81;7392704;19;20022;-65
2022/01/10 01:19:01;;;;;;;21.20;9.52;;;;;;;2.39;100.00;100384.38;7394775;19;20011;-65
2022/01/10 01:24:19;;;;;;;20.75;10.25;;;;;;;2.39;100.00;100399.94;7388608;19;20015;-65
2022/01/10 01:26:49;;;;;;;28.00;10.88;;;;;;;2.39;100.00;100400.81;7392001;19;20018;-65
2022/01/10 01:29:19;;;;;;;24.38;10.35;;;;;;;2.40;100.00;100412.91;7394521;19;20033;-65
2022/01/10 01:31:48;;;;;;;21.15;9.93;;;;;;;2.41;100.00;100419.81;7393938;19;20024;-65
2022/01/10 01:34:20;;;;;;;17.65;10.02;;;;;;;2.42;100.00;100431.88;7395037;19;20037;-65
2022/01/10 01:36:52;;;;;;;23.00;9.40;;;;;;;2.44;100.00;100431.91;7398984;19;20356;-65
2022/01/10 01:39:23;;;;;;;22.65;10.77;;;;;;;2.44;100.00;100437.94;7401176;19;20074;-65
2022/01/10 01:41:54;;;;;;;25.45;11.23;;;;;;;2.44;100.00;100443.13;7401500;19;20015;-65
2022/01/10 01:44:23;;;;;;;23.13;10.98;;;;;;;2.46;100.00;100450.06;7401389;19;20011;-65
2022/01/10 01:46:51;;;;;;;23.02;9.57;;;;;;;2.47;100.00;100452.66;7398999;19;20035;-65
2022/01/10 01:49:22;;;;;;;21.40;10.15;;;;;;;2.50;100.00;100451.78;7400799;19;20018;-65
2022/01/10 01:51:50;;;;;;;21.77;10.07;;;;;;;2.51;100.00;100456.13;7401140;19;20027;-65
2022/01/10 01:54:20;;;;;;;20.17;9.68;;;;;;;2.52;100.00;100460.44;7400145;19;20018;-66
2022/01/10 01:56:50;;;;;;;22.50;9.82;;;;;;;2.53;100.00;100462.19;7402271;19;20010;-65
2022/01/10 01:59:19;;;;;;;22.88;10.57;;;;;;;2.55;100.00;100465.63;7404603;19;20006;-66
2022/01/10 02:01:47;;;;;;;18.15;9.60;;;;;;;2.56;100.00;100468.22;7403640;19;20011;-65
2022/01/10 02:04:15;;;;;;;21.75;9.63;;;;;;;2.57;100.00;100475.16;7400584;19;20088;-65
2022/01/10 02:06:46;;;;;;;17.00;9.98;;;;;;;2.58;100.00;100476.88;7398215;19;20015;-66
2022/01/10 02:09:15;;;;;;;20.90;10.20;;;;;;;2.60;100.00;100484.66;7401239;19;20018;-65
2022/01/10 02:11:44;;;;;;;20.25;9.95;;;;;;;2.59;100.00;100494.16;7400106;19;20014;-65
2022/01/10 02:14:12;;;;;;;22.50;10.80;;;;;;;2.60;100.00;100495.03;7402795;19;20025;-65
2022/01/10 02:16:45;;;;;;;25.48;10.65;;;;;;;2.61;100.00;100507.13;7398435;19;20035;-65
2022/01/10 02:19:13;;;;;;;23.48;9.80;;;;;;;2.59;100.00;100507.13;7400415;19;20010;-65
2022/01/10 02:21:44;;;;;;;23.58;9.85;;;;;;;2.62;100.00;100506.28;7399901;19;20018;-66
2022/01/10 02:24:12;;;;;;;23.13;10.20;;;;;;;2.64;100.00;100508.88;7400160;19;20018;-65
2022/01/10 02:26:41;;;;;;;21.25;9.85;;;;;;;2.65;100.00;100519.22;7398090;19;20031;-65
2022/01/10 02:29:10;;;;;;;21.27;9.68;;;;;;;2.67;100.00;100527.03;7399599;19;20015;-65
2022/01/10 02:31:40;;;;;;;26.33;11.48;;;;;;;2.69;100.00;100530.50;7399545;19;20011;-65
2022/01/10 02:34:09;;;;;;;18.05;9.05;;;;;;;2.69;100.00;100523.59;7398728;19;20483;-65
2022/01/10 02:36:38;;;;;;;18.45;9.65;;;;;;;2.71;100.00;100521.03;7397860;19;20018;-65
2022/01/10 02:39:11;;;;;;;22.23;10.43;;;;;;;2.71;100.00;100540.00;7399320;19;20018;-64
2022/01/10 02:41:41;;;;;;;21.17;10.20;;;;;;;2.73;100.00;100545.19;7401250;19;20365;-64
2022/01/10 02:44:12;;;;;;;23.08;10.25;;;;;;;2.73;100.00;100551.25;7403443;19;20027;-65
2022/01/10 02:46:41;;;;;;;22.30;10.45;;;;;;;2.74;100.00;100557.28;7399643;19;20019;-64
2022/01/10 02:49:11;;;;;;;24.00;10.50;;;;;;;2.70;100.00;100547.78;7401416;19;20010;-64
2022/01/10 02:51:40;;;;;;;26.70;10.05;;;;;;;2.75;100.00;100554.72;7399482;19;20014;-64
2022/01/10 02:54:14;;;;;;;22.38;9.48;;;;;;;2.75;100.00;100559.88;7398528;19;20022;-64
2022/01/10 02:56:48;;;;;;;17.25;8.88;;;;;;;2.76;100.00;100564.22;7397663;19;20019;-64
2022/01/10 02:59:17;;;;;;;22.80;11.00;;;;;;;2.77;100.00;100565.09;7398821;19;20025;-65
2022/01/10 03:01:46;;;;;;;21.58;9.23;;;;;;;2.77;100.00;100568.56;7398641;19;20479;-65
2022/01/10 03:04:15;;;;;;;24.60;11.02;;;;;;;2.79;100.00;100578.91;7398849;19;20081;-64
2022/01/10 03:06:44;;;;;;;21.98;10.15;;;;;;;2.80;100.00;100593.63;7396632;19;20033;-65
2022/01/10 03:09:15;;;;;;;24.25;10.68;;;;;;;2.80;100.00;100590.16;7398510;19;20027;-64
2022/01/10 03:11:44;;;;;;;23.83;10.18;;;;;;;2.80;100.00;100596.22;7398665;19;20018;-65
2022/01/10 03:14:13;;;;;;;22.45;10.18;;;;;;;2.81;100.00;100597.09;7398084;19;20023;-64
2022/01/10 03:16:42;;;;;;;19.80;10.63;;;;;;;2.82;100.00;100603.97;7396877;19;20014;-65
2022/01/10 03:19:10;;;;;;;25.20;11.00;;;;;;;2.82;100.00;100604.88;7398056;19;20015;-64
2022/01/10 03:21:39;;;;;;;22.65;10.15;;;;;;;2.82;100.00;100615.25;7399125;19;20114;-65
2022/01/10 03:24:07;;;;;;;18.25;9.88;;;;;;;2.82;100.00;100609.16;7399271;19;20025;-64
2022/01/10 03:26:38;;;;;;;19.92;9.55;;;;;;;2.82;100.00;100611.75;7397740;19;20019;-68
2022/01/10 03:29:06;;;;;;;26.73;10.32;;;;;;;2.82;100.00;100614.34;7398336;19;20031;-63
2022/01/10 03:31:34;;;;;;;24.88;10.55;;;;;;;2.82;100.00;100616.94;7396873;19;20479;-64
2022/01/10 03:34:02;;;;;;;21.02;10.30;;;;;;;2.82;100.00;100624.72;7396524;19;20354;-64
2022/01/10 03:36:31;;;;;;;23.73;11.23;;;;;;;2.81;100.00;100625.59;7395618;19;20102;-65
2022/01/10 03:38:59;;;;;;;25.95;10.90;;;;;;;2.81;100.00;100628.19;7396928;19;20022;-65
2022/01/10 03:41:27;;;;;;;21.38;11.23;;;;;;;2.81;100.00;100633.38;7397212;19;20014;-64
2022/01/10 03:43:58;;;;;;;24.73;11.77;;;;;;;2.80;100.00;100637.66;7397130;19;20086;-64
2022/01/10 03:46:27;;;;;;;23.90;11.50;;;;;;;2.81;100.00;100649.78;7396235;19;20035;-64
2022/01/10 03:48:56;;;;;;;31.42;12.48;;;;;;;2.82;100.00;100655.81;7396989;19;20086;-65
2022/01/10 03:51:24;;;;;;;25.02;11.50;;;;;;;2.82;100.00;100663.59;7396464;19;20511;-64
2022/01/10 03:53:52;;;;;;;23.70;10.77;;;;;;;2.82;100.00;100664.47;7396649;19;20031;-64
2022/01/10 03:56:21;;;;;;;26.10;12.48;;;;;;;2.82;100.00;100669.66;7395044;19;20035;-64
2022/01/10 03:58:49;;;;;;;23.67;11.18;;;;;;;2.83;100.00;100671.41;7394071;19;20018;-65
2022/01/10 04:01:19;;;;;;;26.77;11.80;;;;;;;2.84;100.00;100678.28;7396451;19;20038;-64
2022/01/10 04:03:48;;;;;;;24.42;11.95;;;;;;;2.84;100.00;100680.88;7396714;19;20098;-64
2022/01/10 04:06:16;;;;;;;29.88;11.18;;;;;;;2.84;100.00;100691.25;7395023;19;20014;-65
2022/01/10 04:08:45;;;;;;;26.27;12.10;;;;;;;2.84;100.00;100703.34;7396389;19;20023;-66
2022/01/10 04:11:13;;;;;;;22.88;11.57;;;;;;;2.85;100.00;100703.34;7396310;19;20024;-65
2022/01/10 04:13:41;;;;;;;19.25;10.63;;;;;;;2.86;100.00;100712.00;7396175;19;20040;-64
2022/01/10 04:16:10;;;;;;;50.83;20.25;;;;;;;2.87;100.00;100711.13;7394726;19;20019;-64
2022/01/10 04:18:41;;;;;;;105.80;35.33;;;;;;;2.88;100.00;100720.66;7396009;19;20483;-64
2022/01/10 04:21:09;;;;;;;79.05;27.75;;;;;;;2.89;100.00;100720.69;7396220;19;20018;-64
2022/01/10 04:23:37;;;;;;;41.28;17.20;;;;;;;2.90;100.00;100718.94;7395853;19;20035;-65
2022/01/10 04:26:06;;;;;;;32.20;14.95;;;;;;;2.89;100.00;100723.28;7394947;19;20023;-65
2022/01/10 04:28:34;;;;;;;32.95;14.73;;;;;;;2.91;100.00;100723.28;7395705;19;20042;-64
2022/01/10 04:31:03;;;;;;;42.83;16.17;;;;;;;2.91;100.00;100729.31;7394994;19;20475;-65
2022/01/10 04:33:32;;;;;;;34.35;14.45;;;;;;;2.87;100.00;100727.56;7394936;19;20451;-64
2022/01/10 04:36:02;;;;;;;41.00;16.95;;;;;;;2.92;100.00;100740.59;7393971;19;20036;-64
2022/01/10 04:38:31;;;;;;;46.65;18.50;;;;;;;2.93;100.00;100747.47;7395461;19;20111;-65
2022/01/10 04:41:06;;;;;;;126.68;38.25;;;;;;;2.91;100.00;100744.88;7394875;19;20015;-64
2022/01/10 04:43:35;;;;;;;99.68;32.50;;;;;;;2.96;100.00;100757.00;7394783;19;20030;-64
2022/01/10 04:46:10;;;;;;;62.08;23.27;;;;;;;2.97;100.00;100759.63;7393860;19;20026;-65
2022/01/10 04:48:39;;;;;;;75.03;26.38;;;;;;;2.97;100.00;100757.03;7394335;19;20026;-65
2022/01/10 04:51:15;;;;;;;78.22;29.63;;;;;;;2.99;100.00;100759.66;7394954;19;20018;-65
2022/01/10 04:53:45;;;;;;;66.55;22.48;;;;;;;3.00;100.00;100776.94;7395066;19;20026;-65
2022/01/10 04:56:14;;;;;;;51.08;21.90;;;;;;;3.01;100.00;100774.34;7393463;19;20022;-65
2022/01/10 04:58:42;;;;;;;32.17;14.13;;;;;;;3.02;100.00;100777.81;7394240;19;20014;-65
2022/01/10 05:01:11;;;;;;;34.17;14.35;;;;;;;3.01;100.00;100782.13;7394166;19;20483;-65
2022/01/10 05:03:40;;;;;;;29.92;13.65;;;;;;;3.00;100.00;100784.72;7394347;19;20037;-65
2022/01/10 05:06:11;;;;;;;27.60;14.52;;;;;;;2.98;100.00;100789.00;7392769;19;20011;-65
2022/01/10 05:08:39;;;;;;;27.50;12.68;;;;;;;3.00;100.00;100798.53;7395502;19;20018;-65
2022/01/10 05:11:07;;;;;;;26.17;12.63;;;;;;;2.99;100.00;100806.28;7401803;19;20019;-65
2022/01/10 05:13:35;;;;;;;28.42;12.40;;;;;;;2.97;100.00;100814.06;7402662;19;20056;-65
2022/01/10 05:16:04;;;;;;;20.55;12.00;;;;;;;2.97;100.00;100816.66;7400274;19;20015;-65
2022/01/10 05:18:33;;;;;;;25.27;12.20;;;;;;;2.97;100.00;100820.94;7401475;19;20551;-64
2022/01/10 05:21:01;;;;;;;24.30;12.70;;;;;;;2.96;100.00;100822.69;7401484;19;20018;-65
2022/01/10 05:23:32;;;;;;;25.88;12.57;;;;;;;2.90;100.00;100820.88;7401651;19;20036;-65
2022/01/10 05:26:00;;;;;;;23.08;12.18;;;;;;;2.92;100.00;100826.09;7400628;19;20018;-65
2022/01/10 05:28:28;;;;;;;30.75;11.50;;;;;;;2.93;100.00;100835.59;7401086;19;20071;-65
2022/01/10 05:31:00;;;;;;;34.00;13.60;;;;;;;2.91;100.00;100843.34;7400570;19;20362;-65
2022/01/10 05:33:28;;;;;;;26.42;13.57;;;;;;;2.90;100.00;100849.38;7401568;19;20487;-65
2022/01/10 05:35:57;;;;;;;31.50;13.10;;;;;;;2.90;100.00;100853.72;7399432;19;20019;-65
2022/01/10 05:38:25;;;;;;;25.02;12.25;;;;;;;2.89;100.00;100857.16;7400972;19;20018;-65
2022/01/10 05:40:56;;;;;;;28.02;13.88;;;;;;;2.88;100.00;100858.00;7400719;19;20014;-65
2022/01/10 05:43:24;;;;;;;26.35;12.60;;;;;;;2.88;100.00;100868.38;7400760;19;20036;-64
2022/01/10 05:45:52;;;;;;;29.25;11.57;;;;;;;2.88;100.00;100868.38;7399248;19;20047;-65
2022/01/10 05:48:26;;;;;;;34.53;16.40;;;;;;;2.87;100.00;100877.00;7399409;19;20032;-65
2022/01/10 05:50:55;;;;;;;35.70;17.52;;;;;;;2.86;100.00;100881.31;7400798;19;20512;-64
2022/01/10 05:53:23;;;;;;;32.83;14.80;;;;;;;2.87;100.00;100883.06;7400840;19;20036;-66
2022/01/10 05:55:52;;;;;;;31.55;14.85;;;;;;;2.87;100.00;100889.94;7398767;19;20014;-65
2022/01/10 05:58:23;;;;;;;40.42;16.52;;;;;;;2.82;100.00;100884.72;7398372;19;20374;-65
2022/01/10 06:00:51;;;;;;;41.15;17.77;;;;;;;2.87;100.00;100903.78;7398362;19;20030;-65
2022/01/10 06:03:20;;;;;;;36.42;16.35;;;;;;;2.87;100.00;100903.78;7399316;19;20015;-65
2022/01/10 06:05:48;;;;;;;29.23;14.43;;;;;;;2.88;100.00;100912.41;7397595;19;20010;-65
2022/01/10 06:08:16;;;;;;;36.85;18.80;;;;;;;2.89;100.00;100919.34;7397549;19;20014;-65
2022/01/10 06:10:45;;;;;;;40.05;18.65;;;;;;;2.91;100.00;100915.06;7399272;19;20019;-65
2022/01/10 06:13:13;;;;;;;36.05;16.98;;;;;;;2.91;100.00;100926.28;7399165;19;20025;-65
2022/01/10 06:15:44;;;;;;;34.53;15.80;;;;;;;2.92;100.00;100924.59;7398514;19;20018;-64
2022/01/10 06:18:12;;;;;;;34.53;14.85;;;;;;;2.91;100.00;100926.28;7398523;19;20352;-65
2022/01/10 06:20:40;;;;;;;32.83;14.43;;;;;;;2.95;100.00;100936.72;7397123;19;20018;-65
2022/01/10 06:23:09;;;;;;;43.00;18.52;;;;;;;2.96;100.00;100941.03;7396962;19;20032;-64
2022/01/10 06:25:38;;;;;;;54.65;25.50;;;;;;;2.96;100.00;100954.88;7399175;19;20019;-66
2022/01/10 06:28:06;;;;;;;47.72;22.77;;;;;;;2.97;100.00;100946.25;7398371;19;20483;-64
2022/01/10 06:30:35;;;;;;;41.20;21.90;;;;;;;2.97;100.00;100956.63;7399299;19;20028;-65
2022/01/10 06:33:06;;;;;;;36.33;18.05;;;;;;;2.98;100.00;100973.88;7399173;19;20363;-64
2022/01/10 06:35:34;;;;;;;35.05;17.52;;;;;;;2.99;100.00;100975.63;7398187;19;20040;-65
2022/01/10 06:38:02;;;;;;;33.65;16.70;;;;;;;3.00;100.00;100979.97;7398463;19;20015;-65
2022/01/10 06:40:30;;;;;;;30.45;14.65;;;;;;;3.02;100.00;100986.06;7400017;19;20026;-64
2022/01/10 06:42:59;;;;;;;28.50;15.43;;;;;;;3.02;100.00;100987.75;7399877;19;20007;-65
2022/01/10 06:45:27;;;;;;;32.83;16.02;;;;;;;3.02;100.00;100999.03;7399166;19;20033;-65
2022/01/10 06:47:55;;;;;;;31.35;13.70;;;;;;;3.02;100.00;100996.44;7398665;19;20014;-65
2022/01/10 06:50:26;;;;;;;32.28;16.30;;;;;;;3.02;100.00;101005.91;7398688;19;20018;-64
2022/01/10 06:52:55;;;;;;;29.10;13.60;;;;;;;3.01;100.00;101010.25;7398545;19;20014;-65
2022/01/10 06:55:24;;;;;;;29.30;13.48;;;;;;;3.03;100.00;101016.31;7397378;19;20467;-65
2022/01/10 06:58:14;;;;;;;22.48;10.43;;;;;;;3.03;100.00;101016.31;7398210;19;20486;-65
2022/01/10 07:00:44;;;;;;;26.17;10.57;;;;;;;3.04;100.00;101030.16;7397972;19;20014;-65
2022/01/10 07:03:12;;;;;;;22.42;9.77;;;;;;;3.04;100.00;101032.75;7397852;19;20028;-65
2022/01/10 07:05:56;;;;;;;30.52;11.52;;;;;;;3.05;100.00;101040.53;7395948;19;20049;-65
2022/01/10 07:08:24;;;;;;;;;;;;;;;3.05;100.00;101043.13;7399362;19;20014;-64
2022/01/10 07:10:52;;;;;;;30.73;12.15;;;;;;;3.05;100.00;101047.44;7397605;19;19926;-64
2022/01/10 07:13:21;;;;;;;20.33;11.70;;;;;;;3.05;100.00;101061.25;7397785;19;20018;-64
2022/01/10 07:15:49;;;;;;;23.63;10.45;;;;;;;3.04;100.00;101056.94;7396888;19;20018;-64
2022/01/10 07:18:18;;;;;;;29.67;10.82;;;;;;;3.06;100.00;101065.59;7397296;19;20011;-64
2022/01/10 07:20:46;;;;;;;21.33;10.50;;;;;;;3.05;100.00;101066.44;7396905;19;20018;-64
2022/01/10 07:23:17;;;;;;;18.42;9.45;;;;;;;3.06;100.00;101077.72;7397484;19;20018;-63
2022/01/10 07:25:45;;;;;;;25.20;10.30;;;;;;;3.06;100.00;101088.09;7396729;19;20015;-64
2022/01/10 07:28:13;;;;;;;28.52;10.00;;;;;;;3.05;100.00;101084.59;7396335;19;20018;-64
2022/01/10 07:30:41;;;;;;;22.58;9.57;;;;;;;3.04;100.00;101088.03;7396310;19;20010;-65
2022/01/10 07:33:09;;;;;;;17.70;10.00;;;;;;;3.05;100.00;101094.97;7396294;19;20040;-65
2022/01/10 07:35:38;;;;;;;25.02;10.90;;;;;;;3.06;100.00;101106.22;7395969;19;20524;-66
2022/01/10 07:38:06;;;;;;;24.88;10.20;;;;;;;3.05;100.00;101113.13;7396040;19;20361;-65
2022/01/10 07:40:37;;;;;;;26.05;11.82;;;;;;;3.07;100.00;101118.31;7396235;19;20399;-64
2022/01/10 07:43:05;;;;;;;24.75;11.77;;;;;;;3.05;100.00;101126.06;7396486;19;20054;-64
2022/01/10 07:45:33;;;;;;;31.00;13.25;;;;;;;3.04;100.00;101126.06;7396252;19;20374;-64
2022/01/10 07:48:01;;;;;;;25.65;13.20;;;;;;;3.07;100.00;101133.88;7396536;19;20018;-64
2022/01/10 07:50:30;;;;;;;24.50;11.80;;;;;;;3.07;100.00;101137.34;7396472;19;20015;-64
2022/01/10 07:52:58;;;;;;;20.08;10.45;;;;;;;3.08;100.00;101146.00;7396501;19;20015;-64
2022/01/10 07:55:26;;;;;;;25.85;11.13;;;;;;;3.08;100.00;101146.00;7396052;19;20047;-64
2022/01/10 07:57:57;;;;;;;23.60;10.57;;;;;;;3.08;100.00;101149.47;7394108;19;20473;-64
2022/01/10 08:00:25;;;;;;;20.42;10.38;;;;;;;3.09;100.00;101156.38;7396478;19;20032;-65
2022/01/10 08:02:54;;;;;;;23.98;10.43;;;;;;;3.09;100.00;101168.47;7395891;19;20011;-65
2022/01/10 08:05:22;;;;;;;23.98;10.75;;;;;;;3.10;100.00;101168.50;7395066;19;20046;-64
2022/01/10 08:07:50;;;;;;;26.83;10.95;;;;;;;3.10;100.00;101171.09;7393776;19;20012;-64
2022/01/10 08:10:18;;;;;;;23.45;11.57;;;;;;;3.12;100.00;101178.03;7395800;19;20029;-64
2022/01/10 08:12:46;;;;;;;25.48;12.55;;;;;;;3.13;100.00;101195.34;7395538;19;20014;-65
2022/01/10 08:15:19;;;;;;;27.02;12.48;;;;;;;3.13;100.00;101191.00;7394632;19;20022;-65
2022/01/10 08:17:48;;;;;;;27.15;12.98;;;;;;;3.13;100.00;101193.59;7395494;19;20032;-65
2022/01/10 08:20:17;;;;;;;24.77;12.63;;;;;;;3.15;100.00;101196.25;7394484;19;20463;-65
2022/01/10 08:22:45;;;;;;;28.92;12.95;;;;;;;3.17;100.00;101202.31;7395660;19;20014;-65
2022/01/10 08:25:13;;;;;;;29.90;12.93;;;;;;;3.18;100.00;101211.84;7395163;19;20019;-63
2022/01/10 08:27:42;;;;;;;35.55;13.25;;;;;;;3.19;100.00;101214.44;7395150;19;20014;-64
2022/01/10 08:30:11;;;;;;;26.33;14.02;;;;;;;3.21;100.00;101220.53;7395549;19;20018;-64
2022/01/10 08:32:42;;;;;;;30.80;12.52;;;;;;;3.23;100.00;101228.34;7395923;19;20015;-65
2022/01/10 08:35:11;;;;;;;29.40;14.20;;;;;;;3.25;100.00;101227.50;7395558;19;20014;-65
2022/01/10 08:37:39;;;;;;;32.45;13.60;;;;;;;3.27;100.00;101235.31;7393629;19;20387;-63
2022/01/10 08:40:09;;;;;;;32.60;15.25;;;;;;;3.31;100.00;101237.13;7396801;19;20010;-63
2022/01/10 08:42:37;;;;;;;36.30;13.63;;;;;;;3.34;100.00;101242.34;7397128;19;20014;-65
2022/01/10 08:45:08;;;;;;;32.78;14.55;;;;;;;3.37;100.00;101244.97;7395038;19;20014;-64
2022/01/10 08:47:36;;;;;;;44.90;14.98;;;;;;;3.41;100.00;101252.00;7396794;19;20022;-64
2022/01/10 08:50:11;;;;;;;33.92;15.55;;;;;;;3.45;100.00;101257.22;7394461;19;20480;-65
2022/01/10 08:52:39;;;;;;;26.17;14.02;;;;;;;3.49;100.00;101259.00;7395486;19;20015;-64
2022/01/10 08:55:09;;;;;;;39.83;14.63;;;;;;;3.51;100.00;101265.09;7394639;19;20015;-63
2022/01/10 08:57:38;;;;;;;32.00;14.50;;;;;;;3.53;100.00;101268.59;7394050;19;20019;-64
2022/01/10 09:00:09;;;;;;;32.22;15.48;;;;;;;3.54;100.00;101267.75;7394977;19;20011;-64
2022/01/10 09:02:38;;;;;;;33.60;13.32;;;;;;;3.57;100.00;101280.75;7394074;19;20514;-64
2022/01/10 09:05:10;;;;;;;27.25;13.85;;;;;;;3.57;100.00;101283.34;7394371;19;20022;-64
2022/01/10 09:07:52;;;;;;;26.88;15.77;;;;;;;3.60;100.00;101291.19;7393054;19;20359;-66
2022/01/10 09:10:20;;;;;;;37.22;15.90;;;;;;;3.63;100.00;101293.84;7394558;19;20033;-66
2022/01/10 09:12:49;;;;;;;28.63;14.35;;;;;;;3.66;100.00;101300.78;7394221;19;20019;-65
2022/01/10 09:15:17;;;;;;;29.70;15.60;;;;;;;3.68;100.00;101297.38;7393563;19;20382;-64
2022/01/10 09:17:45;;;;;;;30.60;14.27;;;;;;;3.72;100.00;101306.94;7393448;19;20345;-65
2022/01/10 09:20:16;;;;;;;27.15;14.30;;;;;;;3.75;100.00;101316.50;7393873;19;20027;-65
2022/01/10 09:22:44;;;;;;;28.63;14.35;;;;;;;3.78;100.00;101320.88;7394133;19;20019;-63
2022/01/10 09:25:12;;;;;;;36.53;15.75;;;;;;;3.75;100.00;101312.19;7393314;19;20049;-65
2022/01/10 09:27:42;;;;;;;31.70;16.35;;;;;;;3.81;99.41;101326.13;7393642;19;20028;-64
2022/01/10 09:30:13;;;;;;;29.70;15.40;;;;;;;3.78;97.87;101326.06;7393385;19;20033;-65
2022/01/10 09:32:41;;;;;;;25.38;13.98;;;;;;;3.75;97.64;101327.78;7393292;19;20483;-67
2022/01/10 09:35:10;;;;;;;25.95;14.77;;;;;;;3.77;98.68;101334.69;7393374;19;20014;-65
2022/01/10 09:37:41;;;;;;;27.52;13.98;;;;;;;3.77;99.31;101343.38;7391078;19;20476;-65
2022/01/10 09:40:10;;;;;;;24.88;13.20;;;;;;;3.78;99.75;101336.44;7393291;19;20201;-67
2022/01/10 09:42:38;;;;;;;24.77;13.25;;;;;;;3.83;98.37;101342.56;7393336;19;20015;-65
2022/01/10 09:45:09;;;;;;;31.10;13.65;;;;;;;3.82;98.37;101343.44;7393635;19;20014;-65
2022/01/10 09:47:39;;;;;;;33.25;13.80;;;;;;;3.83;98.11;101350.34;7393910;19;20014;-65
2022/01/10 09:50:09;;;;;;;20.48;13.60;;;;;;;3.85;98.86;101354.72;7393430;19;20015;-66
2022/01/10 09:52:42;;;;;;;27.52;12.73;;;;;;;3.89;98.42;101360.84;7393881;19;20014;-66
2022/01/10 09:55:11;;;;;;;26.00;12.73;;;;;;;3.91;97.64;101361.75;7392728;19;20483;-64
2022/01/10 09:57:39;;;;;;;24.90;12.82;;;;;;;3.87;98.12;101352.19;7397648;19;20014;-64
2022/01/10 10:00:09;;;;;;;27.52;13.10;;;;;;;3.97;99.29;101371.34;7400905;19;20479;-66
2022/01/10 10:02:40;;;;;;;25.95;12.23;;;;;;;4.02;99.50;101386.16;7400187;19;20032;-64
2022/01/10 10:05:12;;;;;;;29.65;12.95;;;;;;;4.07;98.14;101387.09;7399639;19;20480;-66
2022/01/10 10:07:43;;;;;;;28.30;12.07;;;;;;;4.08;97.15;101391.44;7398040;19;20021;-62
2022/01/10 10:10:13;;;;;;;25.58;12.05;;;;;;;4.12;96.59;101394.97;7399933;19;20022;-65
2022/01/10 10:12:43;;;;;;;28.70;11.77;;;;;;;4.15;97.13;101400.19;7398809;19;20517;-65
2022/01/10 10:15:15;;;;;;;29.33;11.68;;;;;;;4.18;97.30;101410.66;7399057;19;20014;-65
2022/01/10 10:17:43;;;;;;;29.25;11.77;;;;;;;4.20;97.87;101408.94;7398477;19;20011;-70
2022/01/10 10:20:14;;;;;;;26.40;11.07;;;;;;;4.26;98.21;101417.66;7399630;19;20018;-64
2022/01/10 10:22:49;;;;;;;23.58;10.43;;;;;;;4.30;97.60;101422.06;7399904;19;20391;-64
2022/01/10 10:25:18;;;;;;;26.05;10.93;;;;;;;4.33;98.04;101425.56;7399739;19;20022;-64
2022/01/10 10:27:49;;;;;;;25.90;11.68;;;;;;;4.37;97.37;101424.78;7399420;19;20040;-66
2022/01/10 10:30:21;;;;;;;24.95;10.65;;;;;;;4.39;96.55;101433.47;7399235;19;20044;-63
2022/01/10 10:32:50;;;;;;;19.92;10.68;;;;;;;4.38;94.29;101433.44;7399486;19;20014;-64
2022/01/10 10:35:19;;;;;;;25.85;10.50;;;;;;;4.36;95.38;101441.22;7398612;19;20025;-65
2022/01/10 10:37:51;;;;;;;22.30;11.55;;;;;;;4.37;95.55;101442.97;7397559;19;20036;-65
2022/01/10 10:40:19;;;;;;;20.98;10.63;;;;;;;4.39;96.96;101446.44;7399369;19;20010;-65
2022/01/10 10:42:48;;;;;;;23.27;10.93;;;;;;;4.42;97.42;101450.81;7399005;19;20015;-65
2022/01/10 10:45:16;;;;;;;21.50;9.85;;;;;;;4.43;95.33;101454.31;7398273;19;20015;-65
2022/01/10 10:47:45;;;;;;;26.25;10.05;;;;;;;4.43;94.92;101467.31;7398375;19;20011;-65
2022/01/10 10:50:14;;;;;;;24.30;11.27;;;;;;;4.42;94.50;101466.41;7397946;19;20021;-65
2022/01/10 10:52:44;;;;;;;26.75;10.45;;;;;;;4.44;96.25;101471.66;7398052;19;20375;-65
2022/01/10 10:55:17;;;;;;;20.58;10.38;;;;;;;4.43;95.41;101468.16;7398279;19;20055;-64
2022/01/10 10:57:48;;;;;;;21.50;10.32;;;;;;;4.43;96.22;101468.16;7399365;19;20026;-65
2022/01/10 11:00:19;;;;;;;21.48;9.70;;;;;;;4.42;95.37;101473.34;7398719;19;20018;-65
2022/01/10 11:02:47;;;;;;;21.83;9.85;;;;;;;4.42;95.30;101483.72;7398028;19;20111;-65
2022/01/10 11:05:16;;;;;;;16.58;9.23;;;;;;;4.43;95.00;101488.09;7397745;19;20037;-65
2022/01/10 11:07:44;;;;;;;19.15;9.40;;;;;;;4.43;96.18;101488.94;7394992;19;20383;-65
2022/01/10 11:10:15;;;;;;;20.73;9.70;;;;;;;4.42;94.38;101489.78;7397854;19;20493;-65
2022/01/10 11:12:46;;;;;;;20.42;9.15;;;;;;;4.42;94.85;101496.72;7399092;19;20015;-65
2022/01/10 11:15:15;;;;;;;25.33;9.45;;;;;;;4.40;93.80;101500.16;7398072;19;20014;-65
2022/01/10 11:17:44;;;;;;;22.63;8.13;;;;;;;4.40;95.42;101494.97;7396582;19;20509;-65
2022/01/10 11:20:16;;;;;;;21.15;8.75;;;;;;;4.39;94.81;101497.56;7397473;19;20018;-65
2022/01/10 11:22:46;;;;;;;19.35;9.13;;;;;;;4.38;96.17;101494.06;7398068;19;20018;-65
2022/01/10 11:25:26;;;;;;;15.25;9.55;;;;;;;4.42;96.90;101504.53;7397508;19;20033;-64
2022/01/10 11:27:57;;;;;;;16.77;8.95;;;;;;;4.43;97.22;101503.69;7397470;19;20033;-65